sensor_id;sensor_type;location;lat;lon;timestamp;P1;durP1;ratioP1;P2;durP2;ratioP2
74939;SDS011;63505;45.226;37.908;2022-12-18T00:01:36;5.13;;;2.92;;
74939;SDS011;63505;45.226;37.908;2022-12-18T00:04:03;3.75;;;2.22;;
74939;SDS011;63505;45.226;37.908;2022-12-18T00:06:31;6.22;;;2.95;;
74939;SDS011;63505;45.226;37.908;2022-12-18T00:08:58;5.47;;;2.30;;
74939;SDS011;63505;45.226;37.908;2022-12-18T00:11:26;3.75;;;2.22;;
74939;SDS011;63505;45.226;37.908;2022-12-18T00:16:21;6.18;;;2.83;;
74939;SDS011;63505;45.226;37.908;2022-12-18T00:18:48;5.55;;;3.35;;
74939;SDS011;63505;45.226;37.908;2022-12-18T00:21:16;5.85;;;3.28;;
74939;SDS011;63505;45.226;37.908;2022-12-18T00:23:42;5.45;;;3.38;;
74939;SDS011;63505;45.226;37.908;2022-12-18T00:26:13;6.38;;;3.08;;
74939;SDS011;63505;45.226;37.908;2022-12-18T00:28:41;5.20;;;3.08;;
74939;SDS011;63505;45.226;37.908;2022-12-18T00:31:09;7.43;;;3.40;;
74939;SDS011;63505;45.226;37.908;2022-12-18T00:33:37;7.05;;;3.08;;
74939;SDS011;63505;45.226;37.908;2022-12-18T00:36:05;6.00;;;2.50;;
74939;SDS011;63505;45.226;37.908;2022-12-18T00:38:33;5.72;;;2.72;;
74939;SDS011;63505;45.226;37.908;2022-12-18T00:40:59;5.47;;;3.35;;
74939;SDS011;63505;45.226;37.908;2022-12-18T00:43:25;6.25;;;3.70;;
74939;SDS011;63505;45.226;37.908;2022-12-18T00:45:52;4.28;;;2.58;;
74939;SDS011;63505;45.226;37.908;2022-12-18T00:48:18;7.38;;;3.47;;
74939;SDS011;63505;45.226;37.908;2022-12-18T00:50:43;5.78;;;3.30;;
74939;SDS011;63505;45.226;37.908;2022-12-18T00:53:10;5.80;;;3.28;;
74939;SDS011;63505;45.226;37.908;2022-12-18T00:55:37;8.13;;;3.85;;
74939;SDS011;63505;45.226;37.908;2022-12-18T00:58:04;5.65;;;3.08;;
74939;SDS011;63505;45.226;37.908;2022-12-18T01:00:30;6.22;;;3.80;;
74939;SDS011;63505;45.226;37.908;2022-12-18T01:02:56;7.13;;;2.72;;
74939;SDS011;63505;45.226;37.908;2022-12-18T01:05:23;4.78;;;2.72;;
74939;SDS011;63505;45.226;37.908;2022-12-18T01:07:50;4.82;;;2.80;;
74939;SDS011;63505;45.226;37.908;2022-12-18T01:10:16;4.60;;;3.00;;
74939;SDS011;63505;45.226;37.908;2022-12-18T01:12:42;5.63;;;2.65;;
74939;SDS011;63505;45.226;37.908;2022-12-18T01:15:09;4.60;;;2.70;;
74939;SDS011;63505;45.226;37.908;2022-12-18T01:17:37;6.60;;;3.40;;
74939;SDS011;63505;45.226;37.908;2022-12-18T01:20:02;3.85;;;2.05;;
74939;SDS011;63505;45.226;37.908;2022-12-18T01:22:29;3.53;;;1.60;;
74939;SDS011;63505;45.226;37.908;2022-12-18T01:24:55;4.70;;;2.55;;
74939;SDS011;63505;45.226;37.908;2022-12-18T01:27:21;3.97;;;2.47;;
74939;SDS011;63505;45.226;37.908;2022-12-18T01:29:48;5.20;;;1.52;;
74939;SDS011;63505;45.226;37.908;2022-12-18T01:32:14;2.72;;;1.75;;
74939;SDS011;63505;45.226;37.908;2022-12-18T01:34:40;2.58;;;1.48;;
74939;SDS011;63505;45.226;37.908;2022-12-18T01:37:06;5.40;;;2.97;;
74939;SDS011;63505;45.226;37.908;2022-12-18T01:39:32;2.42;;;1.15;;
74939;SDS011;63505;45.226;37.908;2022-12-18T01:41:59;2.80;;;1.27;;
74939;SDS011;63505;45.226;37.908;2022-12-18T01:47:25;4.03;;;2.10;;
74939;SDS011;63505;45.226;37.908;2022-12-18T01:49:51;4.75;;;1.65;;
74939;SDS011;63505;45.226;37.908;2022-12-18T01:52:18;5.28;;;1.80;;
74939;SDS011;63505;45.226;37.908;2022-12-18T01:54:45;4.07;;;2.03;;
74939;SDS011;63505;45.226;37.908;2022-12-18T01:57:13;5.38;;;3.05;;
74939;SDS011;63505;45.226;37.908;2022-12-18T01:59:39;4.82;;;2.03;;
74939;SDS011;63505;45.226;37.908;2022-12-18T02:02:08;4.38;;;2.55;;
74939;SDS011;63505;45.226;37.908;2022-12-18T02:04:34;4.78;;;2.33;;
74939;SDS011;63505;45.226;37.908;2022-12-18T02:07:16;3.70;;;2.50;;
74939;SDS011;63505;45.226;37.908;2022-12-18T02:12:25;8.32;;;2.72;;
74939;SDS011;63505;45.226;37.908;2022-12-18T02:15:10;4.18;;;1.85;;
74939;SDS011;63505;45.226;37.908;2022-12-18T02:17:43;3.33;;;1.55;;
74939;SDS011;63505;45.226;37.908;2022-12-18T02:23:11;3.95;;;2.15;;
74939;SDS011;63505;45.226;37.908;2022-12-18T02:26:19;3.97;;;2.25;;
74939;SDS011;63505;45.226;37.908;2022-12-18T02:31:28;5.72;;;2.03;;
74939;SDS011;63505;45.226;37.908;2022-12-18T02:34:02;3.35;;;1.52;;
74939;SDS011;63505;45.226;37.908;2022-12-18T02:36:36;4.50;;;2.25;;
74939;SDS011;63505;45.226;37.908;2022-12-18T02:39:05;4.47;;;2.80;;
74939;SDS011;63505;45.226;37.908;2022-12-18T02:41:36;4.97;;;2.55;;
74939;SDS011;63505;45.226;37.908;2022-12-18T02:44:06;5.13;;;2.90;;
74939;SDS011;63505;45.226;37.908;2022-12-18T02:46:35;5.97;;;2.55;;
74939;SDS011;63505;45.226;37.908;2022-12-18T03:05:48;4.05;;;2.00;;
74939;SDS011;63505;45.226;37.908;2022-12-18T03:08:20;2.35;;;1.70;;
74939;SDS011;63505;45.226;37.908;2022-12-18T03:10:50;2.40;;;1.45;;
74939;SDS011;63505;45.226;37.908;2022-12-18T03:13:39;1.88;;;1.48;;
74939;SDS011;63505;45.226;37.908;2022-12-18T03:16:15;5.65;;;2.78;;
74939;SDS011;63505;45.226;37.908;2022-12-18T03:18:52;3.63;;;2.20;;
74939;SDS011;63505;45.226;37.908;2022-12-18T03:21:28;3.58;;;1.88;;
74939;SDS011;63505;45.226;37.908;2022-12-18T03:24:03;4.75;;;2.50;;
74939;SDS011;63505;45.226;37.908;2022-12-18T03:26:33;4.30;;;2.10;;
74939;SDS011;63505;45.226;37.908;2022-12-18T03:29:07;3.00;;;1.98;;
74939;SDS011;63505;45.226;37.908;2022-12-18T03:31:40;3.00;;;1.30;;
74939;SDS011;63505;45.226;37.908;2022-12-18T03:34:17;3.08;;;1.75;;
74939;SDS011;63505;45.226;37.908;2022-12-18T03:36:48;3.80;;;2.17;;
74939;SDS011;63505;45.226;37.908;2022-12-18T03:39:14;3.72;;;1.92;;
74939;SDS011;63505;45.226;37.908;2022-12-18T03:41:49;3.17;;;1.63;;
74939;SDS011;63505;45.226;37.908;2022-12-18T03:49:46;2.83;;;1.90;;
74939;SDS011;63505;45.226;37.908;2022-12-18T03:52:21;2.53;;;1.48;;
74939;SDS011;63505;45.226;37.908;2022-12-18T03:54:52;6.03;;;2.65;;
74939;SDS011;63505;45.226;37.908;2022-12-18T03:57:21;3.42;;;1.80;;
74939;SDS011;63505;45.226;37.908;2022-12-18T03:59:54;59.67;;;36.00;;
74939;SDS011;63505;45.226;37.908;2022-12-18T04:02:28;7.40;;;3.42;;
74939;SDS011;63505;45.226;37.908;2022-12-18T04:04:58;7.50;;;3.10;;
74939;SDS011;63505;45.226;37.908;2022-12-18T04:07:28;5.63;;;3.13;;
74939;SDS011;63505;45.226;37.908;2022-12-18T04:09:56;6.00;;;2.55;;
74939;SDS011;63505;45.226;37.908;2022-12-18T04:12:26;4.97;;;2.80;;
74939;SDS011;63505;45.226;37.908;2022-12-18T04:14:54;7.00;;;3.97;;
74939;SDS011;63505;45.226;37.908;2022-12-18T04:17:21;6.88;;;3.28;;
74939;SDS011;63505;45.226;37.908;2022-12-18T04:19:48;5.72;;;2.72;;
74939;SDS011;63505;45.226;37.908;2022-12-18T04:22:14;6.05;;;2.97;;
74939;SDS011;63505;45.226;37.908;2022-12-18T04:24:45;5.50;;;2.50;;
74939;SDS011;63505;45.226;37.908;2022-12-18T04:27:19;4.60;;;2.60;;
74939;SDS011;63505;45.226;37.908;2022-12-18T04:29:48;9.32;;;3.15;;
74939;SDS011;63505;45.226;37.908;2022-12-18T04:34:43;4.80;;;2.00;;
74939;SDS011;63505;45.226;37.908;2022-12-18T04:37:10;6.05;;;2.42;;
74939;SDS011;63505;45.226;37.908;2022-12-18T04:39:37;6.47;;;2.65;;
74939;SDS011;63505;45.226;37.908;2022-12-18T04:42:09;8.23;;;2.70;;
74939;SDS011;63505;45.226;37.908;2022-12-18T04:44:35;4.97;;;2.92;;
74939;SDS011;63505;45.226;37.908;2022-12-18T04:47:01;6.00;;;2.97;;
74939;SDS011;63505;45.226;37.908;2022-12-18T04:49:27;4.45;;;2.17;;
74939;SDS011;63505;45.226;37.908;2022-12-18T04:51:53;4.10;;;2.42;;
74939;SDS011;63505;45.226;37.908;2022-12-18T04:54:19;4.65;;;2.50;;
74939;SDS011;63505;45.226;37.908;2022-12-18T04:56:45;6.47;;;3.10;;
74939;SDS011;63505;45.226;37.908;2022-12-18T04:59:12;5.13;;;3.40;;
74939;SDS011;63505;45.226;37.908;2022-12-18T05:01:38;12.48;;;6.15;;
74939;SDS011;63505;45.226;37.908;2022-12-18T05:04:04;8.80;;;6.25;;
74939;SDS011;63505;45.226;37.908;2022-12-18T05:06:29;9.10;;;5.97;;
74939;SDS011;63505;45.226;37.908;2022-12-18T05:08:55;7.40;;;4.70;;
74939;SDS011;63505;45.226;37.908;2022-12-18T05:11:21;3.92;;;2.22;;
74939;SDS011;63505;45.226;37.908;2022-12-18T05:13:47;4.32;;;2.88;;
74939;SDS011;63505;45.226;37.908;2022-12-18T05:16:13;4.78;;;2.90;;
74939;SDS011;63505;45.226;37.908;2022-12-18T05:18:39;3.92;;;2.30;;
74939;SDS011;63505;45.226;37.908;2022-12-18T05:21:06;5.25;;;2.53;;
74939;SDS011;63505;45.226;37.908;2022-12-18T05:23:32;6.55;;;2.63;;
74939;SDS011;63505;45.226;37.908;2022-12-18T05:26:01;4.75;;;2.33;;
74939;SDS011;63505;45.226;37.908;2022-12-18T05:28:30;4.18;;;2.25;;
74939;SDS011;63505;45.226;37.908;2022-12-18T05:30:57;4.53;;;2.00;;
74939;SDS011;63505;45.226;37.908;2022-12-18T05:33:26;4.68;;;1.92;;
74939;SDS011;63505;45.226;37.908;2022-12-18T05:35:54;5.07;;;1.80;;
74939;SDS011;63505;45.226;37.908;2022-12-18T05:38:29;5.35;;;2.13;;
74939;SDS011;63505;45.226;37.908;2022-12-18T05:40:57;4.07;;;2.70;;
74939;SDS011;63505;45.226;37.908;2022-12-18T05:43:24;4.38;;;2.35;;
74939;SDS011;63505;45.226;37.908;2022-12-18T05:45:51;5.22;;;2.42;;
74939;SDS011;63505;45.226;37.908;2022-12-18T05:48:17;4.28;;;2.03;;
74939;SDS011;63505;45.226;37.908;2022-12-18T05:50:44;4.70;;;2.40;;
74939;SDS011;63505;45.226;37.908;2022-12-18T05:53:12;5.72;;;2.50;;
74939;SDS011;63505;45.226;37.908;2022-12-18T05:55:39;3.53;;;1.85;;
74939;SDS011;63505;45.226;37.908;2022-12-18T05:58:07;5.47;;;2.70;;
74939;SDS011;63505;45.226;37.908;2022-12-18T06:00:35;4.65;;;2.90;;
74939;SDS011;63505;45.226;37.908;2022-12-18T06:03:05;5.07;;;2.40;;
74939;SDS011;63505;45.226;37.908;2022-12-18T06:05:35;5.55;;;2.78;;
74939;SDS011;63505;45.226;37.908;2022-12-18T06:08:03;5.20;;;2.42;;
74939;SDS011;63505;45.226;37.908;2022-12-18T06:10:29;5.50;;;2.42;;
74939;SDS011;63505;45.226;37.908;2022-12-18T06:12:55;4.15;;;2.38;;
74939;SDS011;63505;45.226;37.908;2022-12-18T06:15:21;5.10;;;2.45;;
74939;SDS011;63505;45.226;37.908;2022-12-18T06:17:47;11.25;;;2.88;;
74939;SDS011;63505;45.226;37.908;2022-12-18T06:20:13;4.70;;;2.58;;
74939;SDS011;63505;45.226;37.908;2022-12-18T06:22:39;5.63;;;3.20;;
74939;SDS011;63505;45.226;37.908;2022-12-18T06:25:05;5.93;;;2.65;;
74939;SDS011;63505;45.226;37.908;2022-12-18T06:27:31;9.60;;;3.08;;
74939;SDS011;63505;45.226;37.908;2022-12-18T06:29:58;6.32;;;2.45;;
74939;SDS011;63505;45.226;37.908;2022-12-18T06:32:25;6.15;;;2.75;;
74939;SDS011;63505;45.226;37.908;2022-12-18T06:34:51;4.22;;;2.83;;
74939;SDS011;63505;45.226;37.908;2022-12-18T06:37:19;5.63;;;2.63;;
74939;SDS011;63505;45.226;37.908;2022-12-18T06:39:44;4.43;;;2.65;;
74939;SDS011;63505;45.226;37.908;2022-12-18T06:42:10;4.22;;;2.67;;
74939;SDS011;63505;45.226;37.908;2022-12-18T06:44:37;3.40;;;2.35;;
74939;SDS011;63505;45.226;37.908;2022-12-18T06:47:03;8.40;;;2.55;;
74939;SDS011;63505;45.226;37.908;2022-12-18T06:49:28;4.38;;;2.42;;
74939;SDS011;63505;45.226;37.908;2022-12-18T06:51:54;5.80;;;2.75;;
74939;SDS011;63505;45.226;37.908;2022-12-18T06:54:20;4.63;;;2.35;;
74939;SDS011;63505;45.226;37.908;2022-12-18T06:56:46;3.88;;;2.03;;
74939;SDS011;63505;45.226;37.908;2022-12-18T06:59:12;14.18;;;7.00;;
74939;SDS011;63505;45.226;37.908;2022-12-18T07:01:38;31.95;;;18.48;;
74939;SDS011;63505;45.226;37.908;2022-12-18T07:04:04;13.27;;;5.85;;
74939;SDS011;63505;45.226;37.908;2022-12-18T07:06:30;7.60;;;3.95;;
74939;SDS011;63505;45.226;37.908;2022-12-18T07:08:56;5.65;;;3.25;;
74939;SDS011;63505;45.226;37.908;2022-12-18T07:11:22;8.05;;;3.72;;
74939;SDS011;63505;45.226;37.908;2022-12-18T07:13:48;8.07;;;3.30;;
74939;SDS011;63505;45.226;37.908;2022-12-18T07:16:14;10.05;;;3.50;;
74939;SDS011;63505;45.226;37.908;2022-12-18T07:18:44;10.02;;;4.32;;
74939;SDS011;63505;45.226;37.908;2022-12-18T07:21:11;7.90;;;4.03;;
74939;SDS011;63505;45.226;37.908;2022-12-18T07:23:40;8.70;;;4.75;;
74939;SDS011;63505;45.226;37.908;2022-12-18T07:26:08;6.88;;;4.10;;
74939;SDS011;63505;45.226;37.908;2022-12-18T07:28:38;5.65;;;3.28;;
74939;SDS011;63505;45.226;37.908;2022-12-18T07:31:16;7.45;;;3.33;;
74939;SDS011;63505;45.226;37.908;2022-12-18T07:33:44;6.30;;;4.03;;
74939;SDS011;63505;45.226;37.908;2022-12-18T07:36:11;7.80;;;5.50;;
74939;SDS011;63505;45.226;37.908;2022-12-18T07:38:37;8.07;;;5.30;;
74939;SDS011;63505;45.226;37.908;2022-12-18T07:41:03;9.45;;;5.00;;
74939;SDS011;63505;45.226;37.908;2022-12-18T07:43:31;8.93;;;4.55;;
74939;SDS011;63505;45.226;37.908;2022-12-18T07:45:57;9.80;;;5.03;;
74939;SDS011;63505;45.226;37.908;2022-12-18T07:48:23;7.10;;;4.28;;
74939;SDS011;63505;45.226;37.908;2022-12-18T07:50:49;6.20;;;4.07;;
74939;SDS011;63505;45.226;37.908;2022-12-18T07:53:15;6.22;;;3.85;;
74939;SDS011;63505;45.226;37.908;2022-12-18T07:55:41;7.55;;;3.17;;
74939;SDS011;63505;45.226;37.908;2022-12-18T07:58:07;7.13;;;3.40;;
74939;SDS011;63505;45.226;37.908;2022-12-18T08:00:34;5.35;;;3.05;;
74939;SDS011;63505;45.226;37.908;2022-12-18T08:03:00;6.75;;;3.45;;
74939;SDS011;63505;45.226;37.908;2022-12-18T08:05:26;6.35;;;3.67;;
74939;SDS011;63505;45.226;37.908;2022-12-18T08:07:53;4.80;;;3.00;;
74939;SDS011;63505;45.226;37.908;2022-12-18T08:10:19;4.65;;;2.75;;
74939;SDS011;63505;45.226;37.908;2022-12-18T08:12:48;6.45;;;2.80;;
74939;SDS011;63505;45.226;37.908;2022-12-18T08:15:16;5.38;;;3.20;;
74939;SDS011;63505;45.226;37.908;2022-12-18T08:17:42;8.43;;;3.35;;
74939;SDS011;63505;45.226;37.908;2022-12-18T08:20:08;8.45;;;4.03;;
74939;SDS011;63505;45.226;37.908;2022-12-18T08:22:35;11.73;;;3.78;;
74939;SDS011;63505;45.226;37.908;2022-12-18T08:25:02;8.82;;;4.75;;
74939;SDS011;63505;45.226;37.908;2022-12-18T08:27:29;6.68;;;3.00;;
74939;SDS011;63505;45.226;37.908;2022-12-18T08:29:56;10.23;;;4.30;;
74939;SDS011;63505;45.226;37.908;2022-12-18T08:32:22;6.45;;;3.85;;
74939;SDS011;63505;45.226;37.908;2022-12-18T08:34:48;7.53;;;3.60;;
74939;SDS011;63505;45.226;37.908;2022-12-18T08:37:14;6.47;;;3.53;;
74939;SDS011;63505;45.226;37.908;2022-12-18T08:39:40;6.85;;;3.78;;
74939;SDS011;63505;45.226;37.908;2022-12-18T08:42:05;6.30;;;3.58;;
74939;SDS011;63505;45.226;37.908;2022-12-18T08:44:50;6.28;;;3.72;;
74939;SDS011;63505;45.226;37.908;2022-12-18T08:47:16;7.03;;;3.22;;
74939;SDS011;63505;45.226;37.908;2022-12-18T08:49:42;6.97;;;2.90;;
74939;SDS011;63505;45.226;37.908;2022-12-18T08:52:07;7.50;;;3.72;;
74939;SDS011;63505;45.226;37.908;2022-12-18T08:54:34;7.05;;;4.25;;
74939;SDS011;63505;45.226;37.908;2022-12-18T08:56:59;8.85;;;4.50;;
74939;SDS011;63505;45.226;37.908;2022-12-18T08:59:25;9.63;;;4.72;;
74939;SDS011;63505;45.226;37.908;2022-12-18T09:01:54;10.73;;;5.07;;
74939;SDS011;63505;45.226;37.908;2022-12-18T09:04:20;8.95;;;4.50;;
74939;SDS011;63505;45.226;37.908;2022-12-18T09:06:47;6.47;;;3.97;;
74939;SDS011;63505;45.226;37.908;2022-12-18T09:09:13;10.77;;;4.30;;
74939;SDS011;63505;45.226;37.908;2022-12-18T09:11:39;8.63;;;4.68;;
74939;SDS011;63505;45.226;37.908;2022-12-18T09:14:05;10.00;;;4.72;;
74939;SDS011;63505;45.226;37.908;2022-12-18T09:16:31;12.82;;;5.93;;
74939;SDS011;63505;45.226;37.908;2022-12-18T09:19:00;10.32;;;6.18;;
74939;SDS011;63505;45.226;37.908;2022-12-18T09:21:28;10.02;;;5.38;;
74939;SDS011;63505;45.226;37.908;2022-12-18T09:23:56;10.27;;;5.00;;
74939;SDS011;63505;45.226;37.908;2022-12-18T09:26:22;10.43;;;4.88;;
74939;SDS011;63505;45.226;37.908;2022-12-18T09:28:49;14.10;;;7.18;;
74939;SDS011;63505;45.226;37.908;2022-12-18T09:31:15;15.68;;;7.18;;
74939;SDS011;63505;45.226;37.908;2022-12-18T09:33:43;12.52;;;5.68;;
74939;SDS011;63505;45.226;37.908;2022-12-18T09:36:11;19.58;;;7.95;;
74939;SDS011;63505;45.226;37.908;2022-12-18T09:38:38;18.17;;;9.10;;
74939;SDS011;63505;45.226;37.908;2022-12-18T09:44:22;28.55;;;8.63;;
74939;SDS011;63505;45.226;37.908;2022-12-18T09:47:14;17.50;;;8.45;;
74939;SDS011;63505;45.226;37.908;2022-12-18T09:49:51;16.10;;;9.25;;
74939;SDS011;63505;45.226;37.908;2022-12-18T09:52:27;15.57;;;8.27;;
74939;SDS011;63505;45.226;37.908;2022-12-18T09:57:37;18.80;;;9.70;;
74939;SDS011;63505;45.226;37.908;2022-12-18T10:02:47;18.42;;;11.38;;
74939;SDS011;63505;45.226;37.908;2022-12-18T10:05:16;16.67;;;8.75;;
74939;SDS011;63505;45.226;37.908;2022-12-18T10:07:57;15.40;;;8.40;;
74939;SDS011;63505;45.226;37.908;2022-12-18T10:20:54;15.50;;;9.75;;
74939;SDS011;63505;45.226;37.908;2022-12-18T10:23:35;22.20;;;10.02;;
74939;SDS011;63505;45.226;37.908;2022-12-18T10:26:04;20.45;;;10.80;;
74939;SDS011;63505;45.226;37.908;2022-12-18T10:28:32;20.02;;;10.45;;
74939;SDS011;63505;45.226;37.908;2022-12-18T10:31:00;20.33;;;10.82;;
74939;SDS011;63505;45.226;37.908;2022-12-18T10:33:30;12.90;;;7.00;;
74939;SDS011;63505;45.226;37.908;2022-12-18T10:35:57;16.80;;;8.82;;
74939;SDS011;63505;45.226;37.908;2022-12-18T10:38:24;21.65;;;9.98;;
74939;SDS011;63505;45.226;37.908;2022-12-18T10:46:05;27.13;;;12.85;;
74939;SDS011;63505;45.226;37.908;2022-12-18T10:48:40;24.30;;;9.10;;
74939;SDS011;63505;45.226;37.908;2022-12-18T10:51:07;18.23;;;8.13;;
74939;SDS011;63505;45.226;37.908;2022-12-18T10:53:34;16.05;;;7.05;;
74939;SDS011;63505;45.226;37.908;2022-12-18T10:56:02;25.83;;;7.65;;
74939;SDS011;63505;45.226;37.908;2022-12-18T10:58:32;22.58;;;10.82;;
74939;SDS011;63505;45.226;37.908;2022-12-18T11:06:11;30.63;;;11.85;;
74939;SDS011;63505;45.226;37.908;2022-12-18T11:08:39;24.45;;;10.88;;
74939;SDS011;63505;45.226;37.908;2022-12-18T11:11:07;18.33;;;6.90;;
74939;SDS011;63505;45.226;37.908;2022-12-18T11:16:45;18.17;;;8.68;;
74939;SDS011;63505;45.226;37.908;2022-12-18T11:21:39;17.90;;;9.70;;
74939;SDS011;63505;45.226;37.908;2022-12-18T11:24:07;13.27;;;7.88;;
74939;SDS011;63505;45.226;37.908;2022-12-18T11:26:51;24.05;;;11.13;;
74939;SDS011;63505;45.226;37.908;2022-12-18T11:29:18;21.73;;;10.38;;
74939;SDS011;63505;45.226;37.908;2022-12-18T11:31:50;23.30;;;9.85;;
74939;SDS011;63505;45.226;37.908;2022-12-18T11:34:28;24.40;;;8.93;;
74939;SDS011;63505;45.226;37.908;2022-12-18T11:36:57;15.48;;;6.53;;
74939;SDS011;63505;45.226;37.908;2022-12-18T11:42:09;15.80;;;7.57;;
74939;SDS011;63505;45.226;37.908;2022-12-18T11:44:55;21.27;;;10.70;;
74939;SDS011;63505;45.226;37.908;2022-12-18T11:50:00;26.33;;;11.77;;
74939;SDS011;63505;45.226;37.908;2022-12-18T11:52:32;23.08;;;9.23;;
74939;SDS011;63505;45.226;37.908;2022-12-18T11:55:38;18.20;;;7.88;;
74939;SDS011;63505;45.226;37.908;2022-12-18T12:09:32;28.70;;;9.27;;
74939;SDS011;63505;45.226;37.908;2022-12-18T12:15:27;17.58;;;6.03;;
74939;SDS011;63505;45.226;37.908;2022-12-18T12:26:06;27.75;;;8.63;;
74939;SDS011;63505;45.226;37.908;2022-12-18T12:34:17;14.07;;;6.18;;
74939;SDS011;63505;45.226;37.908;2022-12-18T12:39:19;16.90;;;6.10;;
74939;SDS011;63505;45.226;37.908;2022-12-18T12:41:58;14.00;;;5.63;;
74939;SDS011;63505;45.226;37.908;2022-12-18T12:44:44;12.85;;;5.07;;
74939;SDS011;63505;45.226;37.908;2022-12-18T12:47:19;15.27;;;4.32;;
74939;SDS011;63505;45.226;37.908;2022-12-18T12:49:50;16.83;;;7.50;;
74939;SDS011;63505;45.226;37.908;2022-12-18T12:52:18;13.80;;;6.80;;
74939;SDS011;63505;45.226;37.908;2022-12-18T12:54:56;12.52;;;5.88;;
74939;SDS011;63505;45.226;37.908;2022-12-18T12:57:25;13.38;;;6.00;;
74939;SDS011;63505;45.226;37.908;2022-12-18T13:00:04;11.48;;;5.60;;
74939;SDS011;63505;45.226;37.908;2022-12-18T13:10:47;12.07;;;5.63;;
74939;SDS011;63505;45.226;37.908;2022-12-18T13:13:14;15.93;;;6.97;;
74939;SDS011;63505;45.226;37.908;2022-12-18T13:18:15;15.98;;;6.32;;
74939;SDS011;63505;45.226;37.908;2022-12-18T13:20:47;12.93;;;7.00;;
74939;SDS011;63505;45.226;37.908;2022-12-18T13:30:43;15.60;;;7.95;;
74939;SDS011;63505;45.226;37.908;2022-12-18T13:51:31;12.63;;;6.85;;
74939;SDS011;63505;45.226;37.908;2022-12-18T13:56:28;9.05;;;4.97;;
74939;SDS011;63505;45.226;37.908;2022-12-18T14:01:58;10.82;;;6.45;;
74939;SDS011;63505;45.226;37.908;2022-12-18T14:04:26;11.25;;;6.03;;
74939;SDS011;63505;45.226;37.908;2022-12-18T14:09:49;9.25;;;5.88;;
74939;SDS011;63505;45.226;37.908;2022-12-18T14:12:21;8.73;;;5.90;;
74939;SDS011;63505;45.226;37.908;2022-12-18T14:17:57;11.00;;;6.13;;
74939;SDS011;63505;45.226;37.908;2022-12-18T14:20:28;9.90;;;5.90;;
74939;SDS011;63505;45.226;37.908;2022-12-18T14:22:57;12.65;;;6.75;;
74939;SDS011;63505;45.226;37.908;2022-12-18T14:25:24;11.45;;;6.97;;
74939;SDS011;63505;45.226;37.908;2022-12-18T14:28:08;11.80;;;5.38;;
74939;SDS011;63505;45.226;37.908;2022-12-18T14:30:40;8.65;;;5.38;;
74939;SDS011;63505;45.226;37.908;2022-12-18T14:35:35;11.25;;;5.30;;
74939;SDS011;63505;45.226;37.908;2022-12-18T14:41:03;11.43;;;5.03;;
74939;SDS011;63505;45.226;37.908;2022-12-18T14:43:42;8.23;;;5.30;;
74939;SDS011;63505;45.226;37.908;2022-12-18T14:46:25;8.90;;;5.60;;
74939;SDS011;63505;45.226;37.908;2022-12-18T14:51:52;9.07;;;5.88;;
74939;SDS011;63505;45.226;37.908;2022-12-18T14:54:20;9.57;;;6.22;;
74939;SDS011;63505;45.226;37.908;2022-12-18T14:56:48;8.40;;;4.78;;
74939;SDS011;63505;45.226;37.908;2022-12-18T14:59:22;9.50;;;5.82;;
74939;SDS011;63505;45.226;37.908;2022-12-18T15:04:44;7.07;;;4.53;;
74939;SDS011;63505;45.226;37.908;2022-12-18T15:07:19;9.50;;;5.40;;
74939;SDS011;63505;45.226;37.908;2022-12-18T15:10:00;11.55;;;5.10;;
74939;SDS011;63505;45.226;37.908;2022-12-18T15:12:34;7.93;;;4.43;;
74939;SDS011;63505;45.226;37.908;2022-12-18T15:15:01;10.10;;;5.85;;
74939;SDS011;63505;45.226;37.908;2022-12-18T15:17:28;5.60;;;2.60;;
74939;SDS011;63505;45.226;37.908;2022-12-18T15:20:01;7.03;;;4.60;;
74939;SDS011;63505;45.226;37.908;2022-12-18T15:24:59;5.38;;;3.25;;
74939;SDS011;63505;45.226;37.908;2022-12-18T15:32:34;9.02;;;5.40;;
74939;SDS011;63505;45.226;37.908;2022-12-18T15:35:23;11.25;;;5.72;;
74939;SDS011;63505;45.226;37.908;2022-12-18T15:37:52;12.35;;;5.60;;
74939;SDS011;63505;45.226;37.908;2022-12-18T15:40:19;9.18;;;4.85;;
74939;SDS011;63505;45.226;37.908;2022-12-18T15:42:47;8.77;;;5.03;;
74939;SDS011;63505;45.226;37.908;2022-12-18T15:45:32;8.15;;;4.25;;
74939;SDS011;63505;45.226;37.908;2022-12-18T15:47:58;9.75;;;5.22;;
74939;SDS011;63505;45.226;37.908;2022-12-18T15:50:25;10.93;;;5.63;;
74939;SDS011;63505;45.226;37.908;2022-12-18T15:52:51;6.43;;;4.53;;
74939;SDS011;63505;45.226;37.908;2022-12-18T15:55:20;8.82;;;4.57;;
74939;SDS011;63505;45.226;37.908;2022-12-18T16:00:34;6.88;;;3.97;;
74939;SDS011;63505;45.226;37.908;2022-12-18T16:03:02;6.47;;;3.75;;
74939;SDS011;63505;45.226;37.908;2022-12-18T16:05:29;5.32;;;3.90;;
74939;SDS011;63505;45.226;37.908;2022-12-18T16:07:56;7.32;;;4.10;;
74939;SDS011;63505;45.226;37.908;2022-12-18T16:10:22;12.60;;;3.78;;
74939;SDS011;63505;45.226;37.908;2022-12-18T16:12:49;7.25;;;4.78;;
74939;SDS011;63505;45.226;37.908;2022-12-18T16:15:14;5.47;;;4.07;;
74939;SDS011;63505;45.226;37.908;2022-12-18T16:17:41;6.03;;;3.92;;
74939;SDS011;63505;45.226;37.908;2022-12-18T16:20:19;4.32;;;2.92;;
74939;SDS011;63505;45.226;37.908;2022-12-18T16:22:47;8.15;;;4.45;;
74939;SDS011;63505;45.226;37.908;2022-12-18T16:25:23;5.43;;;3.88;;
74939;SDS011;63505;45.226;37.908;2022-12-18T16:27:51;9.43;;;3.97;;
74939;SDS011;63505;45.226;37.908;2022-12-18T16:30:19;6.03;;;3.78;;
74939;SDS011;63505;45.226;37.908;2022-12-18T16:32:47;8.68;;;4.03;;
74939;SDS011;63505;45.226;37.908;2022-12-18T16:35:14;9.93;;;3.75;;
74939;SDS011;63505;45.226;37.908;2022-12-18T16:37:42;4.65;;;3.35;;
74939;SDS011;63505;45.226;37.908;2022-12-18T16:40:10;5.35;;;3.58;;
74939;SDS011;63505;45.226;37.908;2022-12-18T16:42:38;4.15;;;3.28;;
74939;SDS011;63505;45.226;37.908;2022-12-18T16:45:06;4.35;;;3.08;;
74939;SDS011;63505;45.226;37.908;2022-12-18T16:47:33;5.97;;;3.53;;
74939;SDS011;63505;45.226;37.908;2022-12-18T16:49:59;6.68;;;3.95;;
74939;SDS011;63505;45.226;37.908;2022-12-18T16:52:25;8.77;;;3.88;;
74939;SDS011;63505;45.226;37.908;2022-12-18T16:54:52;6.90;;;3.38;;
74939;SDS011;63505;45.226;37.908;2022-12-18T16:57:18;5.15;;;3.97;;
74939;SDS011;63505;45.226;37.908;2022-12-18T16:59:45;4.93;;;3.00;;
74939;SDS011;63505;45.226;37.908;2022-12-18T17:02:15;4.50;;;2.85;;
74939;SDS011;63505;45.226;37.908;2022-12-18T17:04:44;5.45;;;3.28;;
74939;SDS011;63505;45.226;37.908;2022-12-18T17:07:10;4.63;;;2.92;;
74939;SDS011;63505;45.226;37.908;2022-12-18T17:09:37;5.68;;;3.38;;
74939;SDS011;63505;45.226;37.908;2022-12-18T17:12:04;5.07;;;3.50;;
74939;SDS011;63505;45.226;37.908;2022-12-18T17:14:30;4.93;;;3.58;;
74939;SDS011;63505;45.226;37.908;2022-12-18T17:16:57;3.38;;;2.83;;
74939;SDS011;63505;45.226;37.908;2022-12-18T17:19:26;10.15;;;3.53;;
74939;SDS011;63505;45.226;37.908;2022-12-18T17:21:53;8.50;;;3.90;;
74939;SDS011;63505;45.226;37.908;2022-12-18T17:24:20;5.38;;;3.63;;
74939;SDS011;63505;45.226;37.908;2022-12-18T17:26:46;6.35;;;2.90;;
74939;SDS011;63505;45.226;37.908;2022-12-18T17:29:13;4.88;;;2.72;;
74939;SDS011;63505;45.226;37.908;2022-12-18T17:31:41;5.18;;;3.40;;
74939;SDS011;63505;45.226;37.908;2022-12-18T17:34:08;5.13;;;3.90;;
74939;SDS011;63505;45.226;37.908;2022-12-18T17:36:35;6.93;;;3.67;;
74939;SDS011;63505;45.226;37.908;2022-12-18T17:39:02;6.05;;;3.97;;
74939;SDS011;63505;45.226;37.908;2022-12-18T17:41:29;5.28;;;3.90;;